Time;durP1;ratioP1;P1;durP2;ratioP2;P2;SDS_P1;SDS_P2;PMS_P1;PMS_P2;Temp;Humidity;BMP_temperature;BMP_pressure;BME280_temperature;BME280_humidity;BME280_pressure;Samples;Min_cycle;Max_cycle;Signal;HPM_P1;HPM_P2
2022/12/21 00:02:05;;;;;;;21.95;11.63;;;;;;;1.16;100.00;100115.94;1771256;79;21045;-71
2022/12/21 00:04:32;;;;;;;20.23;12.80;;;;;;;1.18;100.00;100127.28;1752135;80;20987;-71
2022/12/21 00:06:58;;;;;;;;;;;;;;;1.17;100.00;100124.31;1760343;80;21577;-71
2022/12/21 00:09:25;;;;;;;20.62;12.33;;;;;;;1.17;100.00;100129.13;1770103;80;20152;-71
2022/12/21 00:11:51;;;;;;;;;;;;;;;1.11;100.00;100129.95;1759846;80;21086;-72
2022/12/21 00:14:18;;;;;;;21.02;11.30;;;;;;;1.15;100.00;100131.20;1754291;80;20130;-72
2022/12/21 00:16:44;;;;;;;17.87;10.55;;;;;;;1.10;100.00;100126.14;1752601;80;21084;-71
2022/12/21 00:19:13;;;;;;;22.65;13.15;;;;;;;1.11;100.00;100125.92;1753684;82;20998;-71
2022/12/21 00:21:40;;;;;;;20.70;11.88;;;;;;;1.12;100.00;100126.24;1753087;80;21002;-71
2022/12/21 00:24:06;;;;;;;;;;;;;;;1.16;100.00;100130.19;1735364;82;21514;-71
2022/12/21 00:26:36;;;;;;;21.68;11.70;;;;;;;1.18;100.00;100132.13;1685070;84;20131;-71
2022/12/21 00:29:02;;;;;;;18.42;11.78;;;;;;;1.15;100.00;100129.86;1754331;80;21058;-71
2022/12/21 00:31:32;;;;;;;;;;;;;;;1.15;100.00;100135.22;1719759;82;21056;-72
2022/12/21 00:33:59;;;;;;;23.27;12.10;;;;;;;1.15;100.00;100131.71;1687756;84;20174;-71
2022/12/21 00:36:26;;;;;;;;;;;;;;;1.08;100.00;100119.63;1758828;80;21062;-72
2022/12/21 00:38:53;;;;;;;22.80;12.55;;;;;;;1.10;100.00;100118.90;1752455;81;20154;-71
2022/12/21 00:41:23;;;;;;;21.10;12.73;;;;;;;1.07;100.00;100109.92;1761009;80;21042;-71
2022/12/21 00:43:51;;;;;;;22.40;12.18;;;;;;;1.11;100.00;100100.95;1767072;80;20978;-71
2022/12/21 00:46:24;;;;;;;19.57;11.75;;;;;;;1.15;100.00;100106.23;1756301;80;21065;-71
2022/12/21 00:48:51;;;;;;;19.00;11.53;;;;;;;1.19;100.00;100096.77;1770263;81;21557;-72
2022/12/21 00:51:20;;;;;;;;;;;;;;;1.20;100.00;100081.83;1757307;81;21330;-71
2022/12/21 00:53:47;;;;;;;21.80;11.83;;;;;;;1.19;100.00;100080.16;1763594;80;20160;-70
2022/12/21 00:56:14;;;;;;;20.72;12.33;;;;;;;1.17;100.00;100084.88;1754334;80;21711;-72
2022/12/21 00:58:40;;;;;;;20.25;12.45;;;;;;;1.16;100.00;100080.58;1748883;82;21035;-71
2022/12/21 01:01:10;;;;;;;21.52;13.03;;;;;;;1.19;100.00;100076.14;1750845;81;21038;-71
2022/12/21 01:03:37;;;;;;;21.27;11.85;;;;;;;1.20;100.00;100068.92;1758294;80;21074;-70
2022/12/21 01:06:03;;;;;;;;;;;;;;;1.21;100.00;100081.28;1742415;81;21071;-70
2022/12/21 14:51:55;;;;;;;42.13;22.75;;;;;;;1.67;100.00;99778.09;1859988;75;22185;-68
2022/12/21 14:54:34;;;;;;;41.95;21.60;;;;;;;1.70;100.00;99777.70;1847276;77;20971;-68
2022/12/21 14:57:12;;;;;;;40.65;23.02;;;;;;;1.88;100.00;99770.56;1837600;77;21309;-69
2022/12/21 15:00:12;;;;;;;42.27;24.18;;;;;;;2.03;100.00;99777.50;1827986;78;21057;-68
2022/12/21 15:02:53;;;;;;;45.43;25.65;;;;;;;2.11;100.00;99770.55;1827506;77;21000;-68
2022/12/21 15:05:25;;;;;;;40.03;24.57;;;;;;;2.18;100.00;99771.33;1798281;79;21081;-68
2022/12/21 15:07:56;;;;;;;42.55;25.23;;;;;;;2.23;100.00;99767.48;1818110;77;20986;-68
2022/12/21 15:10:34;;;;;;;39.58;21.48;;;;;;;2.29;100.00;99758.03;1828198;77;21708;-68
2022/12/21 15:13:00;;;;;;;33.40;19.10;;;;;;;2.31;100.00;99753.77;1811971;77;21022;-68
2022/12/21 15:15:34;;;;;;;31.60;18.23;;;;;;;2.36;100.00;99757.47;1832654;77;21069;-68
2022/12/21 15:18:26;;;;;;;32.03;19.30;;;;;;;2.38;100.00;99761.26;1817005;77;21036;-68
2022/12/21 15:20:54;;;;;;;30.30;18.12;;;;;;;2.46;100.00;99751.59;1824150;77;21774;-68
2022/12/21 15:23:30;;;;;;;45.45;26.15;;;;;;;2.58;100.00;99759.27;1795278;77;21027;-68
2022/12/21 15:26:23;;;;;;;42.33;25.68;;;;;;;2.63;100.00;99759.92;1829294;77;21652;-68
2022/12/21 15:28:49;;;;;;;33.20;19.70;;;;;;;2.60;100.00;99754.48;1831670;77;20977;-68
2022/12/21 15:31:19;;;;;;;32.80;20.02;;;;;;;2.59;100.00;99758.20;1839080;77;21015;-68
2022/12/21 15:33:46;;;;;;;36.15;21.40;;;;;;;2.59;100.00;99754.17;1827972;77;21515;-68
2022/12/21 15:36:16;;;;;;;36.53;22.60;;;;;;;2.56;100.00;99747.06;1822378;77;21105;-68
2022/12/21 15:38:48;;;;;;;43.68;23.85;;;;;;;2.53;100.00;99747.51;1822863;77;21009;-68
2022/12/21 15:41:48;;;;;;;47.35;27.65;;;;;;;2.47;100.00;99754.08;1822549;77;21571;-68
2022/12/21 15:44:43;;;;;;;185.40;80.53;;;;;;;2.46;100.00;99740.84;1824217;77;21060;-68
2022/12/21 15:47:36;;;;;;;155.03;66.15;;;;;;;2.49;100.00;99737.20;1823845;77;21014;-68
2022/12/21 15:50:20;;;;;;;107.03;49.73;;;;;;;2.40;100.00;99743.08;1824494;77;21053;-68
2022/12/21 15:52:55;;;;;;;119.35;57.62;;;;;;;2.30;100.00;99750.26;1831493;77;21010;-68
2022/12/21 15:55:23;;;;;;;190.53;96.55;;;;;;;2.23;100.00;99750.83;1826960;77;21062;-68
2022/12/21 15:58:05;;;;;;;185.52;102.45;;;;;;;2.21;100.00;99744.03;1833416;77;20943;-68
2022/12/21 16:01:06;;;;;;;86.72;48.25;;;;;;;2.18;100.00;99742.61;1834593;77;21087;-68
2022/12/21 16:03:36;;;;;;;47.73;26.42;;;;;;;2.13;100.00;99739.74;1834106;77;21010;-68
2022/12/21 16:06:14;;;;;;;40.25;21.48;;;;;;;2.04;100.00;99734.86;1823989;77;21081;-68
2022/12/21 16:08:45;;;;;;;28.38;17.60;;;;;;;1.99;100.00;99739.52;1815824;77;21009;-69
2022/12/21 16:11:36;;;;;;;27.05;18.30;;;;;;;1.90;100.00;99720.70;1824625;77;21375;-69
2022/12/21 16:14:16;;;;;;;31.85;18.48;;;;;;;1.85;100.00;99719.17;1812777;78;20987;-69
2022/12/21 16:17:01;;;;;;;30.25;18.05;;;;;;;1.80;100.00;99724.38;1823515;77;21022;-69
2022/12/21 16:19:31;;;;;;;30.65;19.55;;;;;;;1.78;100.00;99721.90;1825093;77;21008;-69
2022/12/21 16:22:07;;;;;;;31.30;20.50;;;;;;;1.79;100.00;99720.04;1820951;77;21037;-69
2022/12/21 16:24:33;;;;;;;34.03;21.10;;;;;;;1.83;100.00;99719.41;1816118;77;21022;-69
2022/12/21 16:27:02;;;;;;;35.48;21.25;;;;;;;1.83;100.00;99718.58;1826440;77;21081;-69
2022/12/21 16:29:30;;;;;;;39.15;23.42;;;;;;;1.82;100.00;99708.35;1826576;77;22118;-68
2022/12/21 16:31:59;;;;;;;38.17;23.35;;;;;;;1.78;100.00;99698.25;1823963;77;21055;-68
2022/12/21 16:34:32;;;;;;;43.52;23.32;;;;;;;1.77;100.00;99696.63;1828407;78;21538;-68
2022/12/21 16:37:21;;;;;;;33.92;21.62;;;;;;;1.74;100.00;99688.47;1805682;78;21063;-68
2022/12/21 16:40:06;;;;;;;39.83;23.80;;;;;;;1.71;100.00;99690.77;1820758;77;21129;-67
2022/12/21 16:42:36;;;;;;;67.00;38.33;;;;;;;1.68;100.00;99681.30;1795888;78;21677;-67
2022/12/21 16:45:28;;;;;;;57.27;32.30;;;;;;;1.66;100.00;99683.90;1821220;77;21022;-68
2022/12/21 16:48:19;;;;;;;38.95;24.10;;;;;;;1.64;100.00;99685.95;1825772;77;21010;-68
2022/12/21 16:50:48;;;;;;;39.15;22.62;;;;;;;1.60;100.00;99693.61;1823660;77;21524;-68
2022/12/21 16:53:40;;;;;;;36.68;23.90;;;;;;;1.61;100.00;99703.83;1831907;77;21527;-68
2022/12/21 16:56:20;;;;;;;35.20;22.87;;;;;;;1.60;100.00;99711.05;1825921;77;21128;-68
2022/12/21 16:58:54;;;;;;;37.42;23.20;;;;;;;1.60;100.00;99708.37;1833214;77;21045;-68
2022/12/21 17:01:36;;;;;;;36.65;23.15;;;;;;;1.59;100.00;99704.58;1833054;77;21058;-68
2022/12/21 17:04:18;;;;;;;36.65;23.75;;;;;;;1.60;100.00;99707.03;1833363;77;21058;-68
2022/12/21 17:06:48;;;;;;;39.55;24.50;;;;;;;1.57;100.00;99700.75;1834369;78;21121;-68
2022/12/21 17:09:20;;;;;;;48.05;27.52;;;;;;;1.57;100.00;99707.46;1833526;77;21509;-68
2022/12/21 17:12:05;;;;;;;45.00;27.60;;;;;;;1.56;100.00;99707.69;1828431;77;21038;-69
2022/12/21 17:14:32;;;;;;;47.78;28.90;;;;;;;1.57;100.00;99709.31;1826652;77;21006;-69
2022/12/21 17:17:20;;;;;;;51.13;29.55;;;;;;;1.57;100.00;99703.95;1831558;77;20990;-67
2022/12/21 17:20:07;;;;;;;47.45;28.90;;;;;;;1.55;100.00;99704.70;1824280;77;21555;-67
2022/12/21 17:22:33;;;;;;;39.65;23.90;;;;;;;1.51;100.00;99705.64;1831918;77;21020;-68
2022/12/21 17:25:18;;;;;;;34.80;21.10;;;;;;;1.45;100.00;99700.59;1831774;77;21026;-68
2022/12/21 17:28:04;;;;;;;37.85;21.37;;;;;;;1.44;100.00;99702.17;1804437;78;21505;-67
2022/12/21 17:30:43;;;;;;;30.45;19.55;;;;;;;1.40;100.00;99705.80;1835194;77;21050;-67
2022/12/21 17:33:08;;;;;;;33.65;20.95;;;;;;;1.42;100.00;99702.88;1827499;77;21751;-67
2022/12/21 17:35:35;;;;;;;35.13;21.42;;;;;;;1.43;100.00;99705.88;1830033;78;21077;-67
2022/12/21 17:38:03;;;;;;;;;;;;;;;1.44;100.00;99707.02;1833500;77;21050;-67
2022/12/21 17:40:30;;;;;;;33.10;20.88;;;;;;;1.49;100.00;99709.04;1831649;77;20127;-67
2022/12/21 17:42:56;;;;;;;33.65;21.42;;;;;;;1.43;100.00;99701.85;1830750;77;21030;-68
2022/12/21 17:45:26;;;;;;;42.70;25.37;;;;;;;1.44;100.00;99704.84;1834309;78;21116;-68
2022/12/21 17:47:52;;;;;;;48.28;26.48;;;;;;;1.43;100.00;99697.83;1830120;77;20939;-68
2022/12/21 17:50:29;;;;;;;42.78;24.92;;;;;;;1.43;100.00;99693.30;1827536;77;21034;-68
2022/12/21 17:52:59;;;;;;;39.58;24.45;;;;;;;1.41;100.00;99686.50;1803417;78;20958;-69
2022/12/21 17:55:27;;;;;;;36.95;24.12;;;;;;;1.40;100.00;99692.89;1830880;77;21104;-68
2022/12/21 17:58:01;;;;;;;42.27;25.68;;;;;;;1.36;100.00;99692.50;1823626;77;21083;-68
2022/12/21 18:00:25;;;;;;;41.63;24.20;;;;;;;1.37;100.00;99683.42;1822329;77;21548;-68
2022/12/21 18:03:00;;;;;;;41.33;24.15;;;;;;;1.35;100.00;99675.27;1829798;77;21064;-68
2022/12/21 18:05:26;;;;;;;68.80;40.28;;;;;;;1.12;100.00;99643.63;1823098;77;21073;-69
2022/12/21 18:07:55;;;;;;;95.95;62.17;;;;;;;1.35;100.00;99676.61;1820903;77;21020;-68
2022/12/21 18:10:25;;;;;;;78.67;48.45;;;;;;;1.36;100.00;99684.45;1829549;77;21043;-69
2022/12/21 18:12:52;;;;;;;60.17;36.95;;;;;;;1.36;100.00;99680.95;1818247;78;21030;-69
2022/12/21 18:15:18;;;;;;;61.50;36.35;;;;;;;1.39;100.00;99683.20;1822953;77;21062;-69
2022/12/21 18:17:58;;;;;;;58.40;34.48;;;;;;;1.40;100.00;99690.22;1827999;77;21038;-68
2022/12/21 18:20:28;;;;;;;42.67;27.05;;;;;;;1.44;100.00;99684.73;1829075;77;21014;-67
2022/12/21 18:22:56;;;;;;;40.80;26.30;;;;;;;1.43;100.00;99685.76;1833875;77;21594;-68
2022/12/21 18:25:23;;;;;;;47.03;29.00;;;;;;;1.37;100.00;99657.12;1829427;77;21053;-66
2022/12/21 18:27:49;;;;;;;45.95;28.52;;;;;;;1.45;100.00;99672.42;1830859;77;21045;-68
2022/12/21 18:30:20;;;;;;;45.52;29.82;;;;;;;1.44;100.00;99666.78;1828512;78;21697;-68
2022/12/21 18:32:49;;;;;;;37.75;25.08;;;;;;;1.43;100.00;99671.01;1829840;77;20998;-68
2022/12/21 18:35:21;;;;;;;36.83;22.95;;;;;;;1.42;100.00;99662.12;1829396;77;21084;-69
2022/12/21 18:37:49;;;;;;;36.33;22.87;;;;;;;1.38;100.00;99665.48;1830608;77;21033;-69
2022/12/21 18:40:19;;;;;;;34.15;23.32;;;;;;;1.36;100.00;99663.51;1830613;77;21136;-69
2022/12/21 18:42:50;;;;;;;34.70;23.02;;;;;;;1.34;100.00;99666.42;1830395;77;21081;-68
2022/12/21 18:45:16;;;;;;;41.42;24.30;;;;;;;1.33;100.00;99661.26;1830527;77;21690;-68
2022/12/21 18:47:43;;;;;;;40.67;24.00;;;;;;;1.34;100.00;99658.89;1830576;77;21033;-68
2022/12/21 18:50:16;;;;;;;;;;;;;;;1.38;100.00;99657.44;1834268;78;21073;-68
2022/12/21 18:52:44;;;;;;;33.55;21.05;;;;;;;1.37;100.00;99651.24;1798905;77;20142;-68
2022/12/21 18:55:17;;;;;;;37.83;21.73;;;;;;;1.24;100.00;99642.45;1828692;77;21034;-66
2022/12/21 18:57:48;;;;;;;36.55;22.77;;;;;;;1.19;100.00;99647.09;1828032;77;21494;-68
2022/12/21 19:00:18;;;;;;;36.50;22.45;;;;;;;1.20;100.00;99647.92;1825965;77;21144;-68
2022/12/21 19:02:46;;;;;;;38.02;24.25;;;;;;;1.17;100.00;99643.78;1825560;77;21081;-68
2022/12/21 19:05:18;;;;;;;38.05;23.65;;;;;;;1.17;100.00;99646.47;1831972;78;21141;-67
2022/12/21 19:13:54;;;;;;;40.10;23.60;;;;;;;1.17;100.00;99642.45;1871905;74;23345;-68
2022/12/21 19:16:28;;;;;;;38.75;24.65;;;;;;;1.15;100.00;99651.23;1831265;77;21697;-68
2022/12/21 19:18:56;;;;;;;41.37;26.77;;;;;;;1.17;100.00;99648.36;1840368;76;21127;-67
2022/12/21 19:21:31;;;;;;;44.10;26.40;;;;;;;1.17;100.00;99648.36;1838509;76;21079;-67
2022/12/21 19:24:03;;;;;;;42.67;26.07;;;;;;;1.16;100.00;99644.02;1837120;76;21079;-68
2022/12/21 19:26:32;;;;;;;53.00;30.10;;;;;;;1.11;100.00;99645.99;1828318;76;21074;-68
2022/12/21 19:29:17;;;;;;;54.67;32.03;;;;;;;1.12;100.00;99651.66;1826184;76;21059;-69
2022/12/21 19:31:46;;;;;;;42.55;26.15;;;;;;;1.10;100.00;99652.92;1838876;77;21095;-68
2022/12/21 19:34:13;;;;;;;42.35;27.45;;;;;;;1.18;100.00;99649.98;1846425;77;21019;-68
2022/12/21 19:39:27;;;;;;;41.60;24.77;;;;;;;1.20;100.00;99638.54;1828934;76;22925;-68
2022/12/21 19:41:54;;;;;;;42.85;26.17;;;;;;;1.07;100.00;99648.78;1816298;77;21043;-67
2022/12/21 19:44:21;;;;;;;43.90;26.75;;;;;;;1.09;100.00;99644.05;1823489;77;21038;-67
2022/12/21 19:46:47;;;;;;;39.88;24.65;;;;;;;1.08;100.00;99643.73;1817084;77;21061;-68
2022/12/21 19:49:22;;;;;;;;;;;;;;;1.09;100.00;99640.03;1819869;77;21073;-68
2022/12/21 19:51:51;;;;;;;46.02;27.32;;;;;;;1.09;100.00;99644.56;1809098;77;20196;-68
2022/12/21 19:54:20;;;;;;;45.12;27.50;;;;;;;1.07;100.00;99647.45;1811251;77;21050;-68
2022/12/21 19:56:55;;;;;;;41.50;26.57;;;;;;;1.11;100.00;99645.16;1798126;77;21050;-68
2022/12/21 19:59:25;;;;;;;45.10;26.90;;;;;;;1.10;100.00;99645.67;1802395;77;21044;-68
2022/12/21 20:01:53;;;;;;;45.17;27.95;;;;;;;1.07;100.00;99657.34;1786454;78;21017;-69
2022/12/21 20:04:22;;;;;;;46.37;26.73;;;;;;;1.09;100.00;99655.29;1811426;77;21532;-68
2022/12/21 20:06:49;;;;;;;44.38;26.73;;;;;;;1.08;100.00;99657.66;1820086;77;21067;-68
2022/12/21 20:09:22;;;;;;;44.42;26.55;;;;;;;1.09;100.00;99651.27;1806165;77;21540;-68
2022/12/21 20:11:49;;;;;;;42.50;25.95;;;;;;;1.06;100.00;99648.50;1815043;77;21019;-68
2022/12/21 20:14:40;;;;;;;42.95;26.80;;;;;;;1.06;100.00;99651.19;1821259;77;21091;-68
2022/12/21 20:17:18;;;;;;;40.28;25.72;;;;;;;1.03;100.00;99648.11;1804162;77;21411;-69
2022/12/21 20:19:45;;;;;;;44.03;26.10;;;;;;;1.02;100.00;99639.75;1802888;77;21058;-68
2022/12/21 20:22:12;;;;;;;41.53;25.52;;;;;;;0.99;100.00;99638.33;1810084;77;21023;-68
2022/12/21 20:24:41;;;;;;;43.60;26.57;;;;;;;1.03;100.00;99643.54;1808874;77;21015;-68
2022/12/21 20:27:26;;;;;;;42.05;25.72;;;;;;;1.04;100.00;99643.86;1774061;79;21034;-69
2022/12/21 20:29:52;;;;;;;42.75;25.70;;;;;;;1.00;100.00;99637.27;1823438;77;21443;-68
2022/12/21 20:32:19;;;;;;;44.90;26.75;;;;;;;0.96;100.00;99640.89;1816090;77;21037;-70
2022/12/21 20:34:45;;;;;;;40.00;24.92;;;;;;;0.99;100.00;99643.69;1811664;77;21627;-70
2022/12/21 20:37:15;;;;;;;42.40;26.57;;;;;;;0.98;100.00;99648.73;1796237;77;21482;-70
2022/12/21 20:39:41;;;;;;;38.80;24.12;;;;;;;0.98;100.00;99643.37;1823438;78;20982;-70
2022/12/21 20:45:29;;;;;;;43.08;26.17;;;;;;;0.97;100.00;99649.25;1726738;81;21063;-70
2022/12/21 20:47:57;;;;;;;40.70;25.35;;;;;;;1.00;100.00;99643.97;1724419;83;21080;-69
2022/12/21 20:50:33;;;;;;;41.23;24.47;;;;;;;1.08;100.00;99634.87;1727515;82;21590;-70
2022/12/21 20:53:00;;;;;;;40.95;24.43;;;;;;;1.13;100.00;99640.43;1723838;82;21048;-70
2022/12/21 20:58:07;;;;;;;40.05;24.20;;;;;;;1.06;100.00;99631.59;1667374;83;21035;-70
2022/12/21 21:00:34;;;;;;;41.25;25.20;;;;;;;1.08;100.00;99633.02;1716503;83;21050;-70
2022/12/21 21:03:00;;;;;;;;;;;;;;;1.15;100.00;99634.32;1698837;84;21061;-69
2022/12/21 21:05:26;;;;;;;38.40;23.95;;;;;;;1.19;100.00;99631.52;1696620;84;20437;-69
2022/12/21 21:07:54;;;;;;;38.67;24.77;;;;;;;1.09;100.00;99627.14;1698631;84;21051;-70
2022/12/21 21:10:20;;;;;;;42.33;27.20;;;;;;;1.11;100.00;99629.08;1697436;83;21635;-70
2022/12/21 21:12:47;;;;;;;44.20;27.90;;;;;;;1.15;100.00;99628.45;1697561;84;21412;-70
2022/12/21 21:15:19;;;;;;;46.68;26.85;;;;;;;1.23;100.00;99624.70;1708383;83;21078;-70
2022/12/21 21:17:45;;;;;;;48.65;27.55;;;;;;;1.22;100.00;99627.06;1705919;83;21081;-70
2022/12/21 21:23:15;;;;;;;44.80;27.77;;;;;;;1.19;100.00;99624.30;1689634;84;21524;-70
2022/12/21 21:25:46;;;;;;;42.45;26.80;;;;;;;1.24;100.00;99623.67;1697820;83;21670;-70
2022/12/21 21:28:24;;;;;;;38.88;23.85;;;;;;;1.27;100.00;99617.88;1671951;84;21127;-70
2022/12/21 21:30:55;;;;;;;36.85;23.85;;;;;;;1.35;100.00;99613.06;1698808;83;21148;-70
2022/12/21 21:33:23;;;;;;;41.83;24.45;;;;;;;1.37;100.00;99612.86;1700795;83;21572;-70
2022/12/21 21:35:52;;;;;;;;;;;;;;;1.34;100.00;99614.13;1700787;84;21628;-70
2022/12/21 21:41:34;;;;;;;37.53;23.12;;;;;;;1.21;100.00;99606.13;1698127;84;20170;-70
2022/12/21 21:44:14;;;;;;;40.45;23.18;;;;;;;1.21;100.00;99594.06;1674265;84;21723;-70
2022/12/21 21:46:41;;;;;;;40.15;23.73;;;;;;;1.22;100.00;99591.70;1699924;82;21100;-70
2022/12/21 21:49:16;;;;;;;37.95;23.90;;;;;;;1.21;100.00;99591.38;1721929;83;21088;-70
2022/12/21 21:51:42;;;;;;;42.80;25.17;;;;;;;1.21;100.00;99593.23;1750608;80;21130;-69
2022/12/21 21:54:09;;;;;;;36.17;22.90;;;;;;;1.23;100.00;99589.33;1735440;82;21012;-69
2022/12/21 21:56:44;;;;;;;39.38;24.82;;;;;;;1.30;100.00;99585.27;1731947;82;21048;-69
2022/12/21 21:59:36;;;;;;;39.65;23.27;;;;;;;1.32;100.00;99589.87;1722921;83;21616;-69
2022/12/21 22:02:20;;;;;;;36.85;23.62;;;;;;;1.27;100.00;99583.84;1718632;83;20996;-69
2022/12/21 22:04:48;;;;;;;37.88;22.87;;;;;;;1.22;100.00;99576.13;1718823;83;21064;-69
2022/12/21 22:07:15;;;;;;;35.35;21.00;;;;;;;1.19;100.00;99584.09;1717862;83;21064;-69
2022/12/21 22:09:41;;;;;;;37.53;23.30;;;;;;;1.17;100.00;99581.33;1723881;82;21033;-69
2022/12/21 22:12:21;;;;;;;34.23;22.00;;;;;;;1.18;100.00;99585.62;1722619;83;21021;-69
